VOI283 MMMX-MMGL
Flight info
| Callsign | VOI283 |
|---|---|
| Flight time | 0h 47m |
| Altitude | 32000 |
| Route | OVAGO3A OVAGO UT123 IGSON IGSON1B |
| Aircraft | A20N/M-SDE2E3FGHIJ1RWXY/L |
Departure
| Time | 2026-05-06 02:00 |
|---|---|
| Airport | Mexico City Benito Juárez International Airport (MMMX) |
Arrival
| Time | 2026-05-06 02:47 |
|---|---|
| Airport | Guadalajara International Airport (MMGL) |
| Time | Latitude | Longitude | Altitude | Speed | Heading |
|---|---|---|---|---|---|
| 2026-05-06 01:37 | 19.43320 | -99.08474 | 7303 ft | 0 kts | 328° |
| 2026-05-06 01:47 | 19.43316 | -99.08471 | 7303 ft | 2 kts | 328° |
| 2026-05-06 01:48 | 19.43302 | -99.08462 | 7303 ft | 2 kts | 328° |
| 2026-05-06 01:48 | 19.43288 | -99.08453 | 7303 ft | 2 kts | 328° |
| 2026-05-06 01:48 | 19.43273 | -99.08444 | 7303 ft | 2 kts | 328° |
| 2026-05-06 01:48 | 19.43260 | -99.08434 | 7303 ft | 2 kts | 320° |
| 2026-05-06 01:49 | 19.43250 | -99.08420 | 7303 ft | 2 kts | 291° |
| 2026-05-06 01:49 | 19.43250 | -99.08405 | 7303 ft | 2 kts | 238° |
| 2026-05-06 01:49 | 19.43252 | -99.08401 | 7303 ft | 0 kts | 238° |
| 2026-05-06 01:51 | 19.43235 | -99.08432 | 7303 ft | 13 kts | 239° |
| 2026-05-06 01:51 | 19.43180 | -99.08530 | 7303 ft | 17 kts | 239° |
| 2026-05-06 01:52 | 19.43119 | -99.08641 | 7303 ft | 18 kts | 240° |
| 2026-05-06 01:52 | 19.43058 | -99.08751 | 7303 ft | 18 kts | 239° |
| 2026-05-06 01:52 | 19.42994 | -99.08863 | 7303 ft | 17 kts | 239° |
| 2026-05-06 01:52 | 19.42933 | -99.08971 | 7303 ft | 15 kts | 236° |
| 2026-05-06 01:53 | 19.42872 | -99.09038 | 7303 ft | 13 kts | 210° |
| 2026-05-06 01:53 | 19.42846 | -99.09053 | 7303 ft | 2 kts | 209° |
| 2026-05-06 01:53 | 19.42840 | -99.09056 | 7303 ft | 0 kts | 209° |
| 2026-05-06 01:54 | 19.42818 | -99.09069 | 7303 ft | 11 kts | 208° |
| 2026-05-06 01:55 | 19.42764 | -99.09044 | 7304 ft | 13 kts | 83° |
| 2026-05-06 01:55 | 19.42783 | -99.08992 | 7304 ft | 0 kts | 60° |
| 2026-05-06 01:59 | 19.42796 | -99.08969 | 7304 ft | 24 kts | 59° |
| 2026-05-06 02:00 | 19.43023 | -99.08569 | 7303 ft | 101 kts | 60° |
| 2026-05-06 02:00 | 19.43493 | -99.07739 | 7306 ft | 160 kts | 59° |
| 2026-05-06 02:00 | 19.44141 | -99.06620 | 7595 ft | 186 kts | 61° |
| 2026-05-06 02:00 | 19.44824 | -99.05410 | 8501 ft | 198 kts | 61° |
| 2026-05-06 02:01 | 19.45510 | -99.04091 | 9107 ft | 209 kts | 63° |
| 2026-05-06 02:01 | 19.46187 | -99.02704 | 9324 ft | 217 kts | 63° |
| 2026-05-06 02:01 | 19.46978 | -99.01275 | 9545 ft | 234 kts | 59° |
| 2026-05-06 02:01 | 19.47885 | -98.99758 | 9780 ft | 254 kts | 58° |
| 2026-05-06 02:02 | 19.48868 | -98.98103 | 10023 ft | 273 kts | 59° |
| 2026-05-06 02:02 | 19.49811 | -98.96337 | 10614 ft | 275 kts | 71° |
| 2026-05-06 02:02 | 19.50098 | -98.94382 | 11269 ft | 274 kts | 96° |
| 2026-05-06 02:02 | 19.49538 | -98.92465 | 11912 ft | 275 kts | 122° |
| 2026-05-06 02:03 | 19.48221 | -98.90995 | 12550 ft | 280 kts | 148° |
| 2026-05-06 02:03 | 19.46393 | -98.90286 | 13184 ft | 284 kts | 174° |
| 2026-05-06 02:03 | 19.44423 | -98.90506 | 13837 ft | 290 kts | 199° |
| 2026-05-06 02:03 | 19.42707 | -98.91634 | 14434 ft | 296 kts | 225° |
| 2026-05-06 02:04 | 19.41575 | -98.93456 | 15033 ft | 300 kts | 246° |
| 2026-05-06 02:04 | 19.40820 | -98.95535 | 15648 ft | 304 kts | 251° |
| 2026-05-06 02:04 | 19.40134 | -98.97665 | 16288 ft | 307 kts | 251° |
| 2026-05-06 02:04 | 19.39421 | -98.99812 | 16783 ft | 312 kts | 250° |
| 2026-05-06 02:05 | 19.38659 | -99.01979 | 16956 ft | 315 kts | 249° |
| 2026-05-06 02:05 | 19.37867 | -99.04137 | 17004 ft | 314 kts | 248° |
| 2026-05-06 02:05 | 19.37152 | -99.06321 | 17041 ft | 315 kts | 256° |
| 2026-05-06 02:05 | 19.36766 | -99.08619 | 17332 ft | 322 kts | 261° |
| 2026-05-06 02:06 | 19.36445 | -99.10891 | 17509 ft | 339 kts | 261° |
| 2026-05-06 02:06 | 19.36078 | -99.13389 | 17987 ft | 345 kts | 261° |
| 2026-05-06 02:06 | 19.35704 | -99.15907 | 18563 ft | 347 kts | 261° |
| 2026-05-06 02:06 | 19.35328 | -99.18448 | 19051 ft | 350 kts | 261° |
| 2026-05-06 02:07 | 19.34951 | -99.21005 | 19555 ft | 353 kts | 261° |
| 2026-05-06 02:07 | 19.34571 | -99.23585 | 20059 ft | 355 kts | 260° |
| 2026-05-06 02:07 | 19.34188 | -99.26186 | 20558 ft | 358 kts | 260° |
| 2026-05-06 02:07 | 19.33802 | -99.28798 | 21045 ft | 360 kts | 260° |
| 2026-05-06 02:08 | 19.33419 | -99.31396 | 21590 ft | 363 kts | 260° |
| 2026-05-06 02:08 | 19.33028 | -99.34042 | 22167 ft | 365 kts | 260° |
| 2026-05-06 02:08 | 19.32634 | -99.36710 | 22717 ft | 367 kts | 260° |
| 2026-05-06 02:08 | 19.32238 | -99.39390 | 23264 ft | 370 kts | 259° |
| 2026-05-06 02:09 | 19.31782 | -99.42109 | 23534 ft | 381 kts | 257° |
| 2026-05-06 02:09 | 19.31234 | -99.44897 | 23715 ft | 393 kts | 256° |
| 2026-05-06 02:09 | 19.30651 | -99.47779 | 23899 ft | 406 kts | 256° |
| 2026-05-06 02:09 | 19.30057 | -99.50745 | 24005 ft | 418 kts | 257° |
| 2026-05-06 02:10 | 19.29458 | -99.53794 | 24164 ft | 427 kts | 257° |
| 2026-05-06 02:10 | 19.28857 | -99.56886 | 24339 ft | 429 kts | 257° |
| 2026-05-06 02:10 | 19.28259 | -99.59978 | 24395 ft | 428 kts | 257° |
| 2026-05-06 02:10 | 19.27663 | -99.63063 | 24394 ft | 428 kts | 257° |
| 2026-05-06 02:11 | 19.27067 | -99.66147 | 24349 ft | 427 kts | 257° |
| 2026-05-06 02:11 | 19.26470 | -99.69228 | 24303 ft | 428 kts | 257° |
| 2026-05-06 02:11 | 19.25871 | -99.72318 | 24314 ft | 430 kts | 257° |
| 2026-05-06 02:11 | 19.25267 | -99.75424 | 24672 ft | 431 kts | 257° |
| 2026-05-06 02:12 | 19.24867 | -99.77480 | 24943 ft | 431 kts | 256° |
| 2026-05-06 02:12 | 19.24262 | -99.80591 | 25284 ft | 433 kts | 256° |
| 2026-05-06 02:12 | 19.23486 | -99.84752 | 25696 ft | 436 kts | 257° |
| 2026-05-06 02:12 | 19.22920 | -99.87908 | 26023 ft | 437 kts | 257° |
| 2026-05-06 02:13 | 19.22352 | -99.91078 | 26336 ft | 439 kts | 257° |
| 2026-05-06 02:13 | 19.21778 | -99.94257 | 26664 ft | 441 kts | 257° |
| 2026-05-06 02:13 | 19.21387 | -99.96416 | 26917 ft | 442 kts | 257° |
| 2026-05-06 02:13 | 19.20804 | -99.99620 | 27240 ft | 444 kts | 257° |
| 2026-05-06 02:14 | 19.20217 | -100.02835 | 27579 ft | 446 kts | 257° |
| 2026-05-06 02:14 | 19.19627 | -100.06064 | 27930 ft | 447 kts | 257° |
| 2026-05-06 02:14 | 19.19050 | -100.09261 | 28261 ft | 450 kts | 259° |
| 2026-05-06 02:14 | 19.18788 | -100.12565 | 28556 ft | 454 kts | 268° |
| 2026-05-06 02:15 | 19.19051 | -100.15910 | 28822 ft | 460 kts | 277° |
| 2026-05-06 02:15 | 19.19846 | -100.19222 | 28899 ft | 470 kts | 287° |
| 2026-05-06 02:15 | 19.21981 | -100.25843 | 29192 ft | 479 kts | 286° |
| 2026-05-06 02:16 | 19.23049 | -100.29184 | 29502 ft | 480 kts | 286° |
| 2026-05-06 02:16 | 19.24115 | -100.32534 | 29769 ft | 482 kts | 286° |
| 2026-05-06 02:16 | 19.25186 | -100.35901 | 30028 ft | 483 kts | 286° |
| 2026-05-06 02:16 | 19.26257 | -100.39278 | 30297 ft | 484 kts | 286° |
| 2026-05-06 02:17 | 19.27329 | -100.42656 | 30570 ft | 485 kts | 286° |
| 2026-05-06 02:17 | 19.28404 | -100.46048 | 30807 ft | 486 kts | 286° |
| 2026-05-06 02:17 | 19.29481 | -100.49448 | 30998 ft | 487 kts | 286° |
| 2026-05-06 02:17 | 19.30555 | -100.52842 | 31246 ft | 487 kts | 286° |
| 2026-05-06 02:18 | 19.31629 | -100.56237 | 31542 ft | 485 kts | 286° |
| 2026-05-06 02:18 | 19.32697 | -100.59617 | 31721 ft | 483 kts | 286° |
| 2026-05-06 02:18 | 19.34821 | -100.66344 | 31765 ft | 480 kts | 286° |
| 2026-05-06 02:19 | 19.36941 | -100.73067 | 31762 ft | 482 kts | 287° |
| 2026-05-06 02:19 | 19.39206 | -100.79698 | 31786 ft | 482 kts | 288° |
| 2026-05-06 02:20 | 19.42690 | -100.89692 | 31788 ft | 481 kts | 288° |
| 2026-05-06 02:21 | 19.44983 | -100.96354 | 31798 ft | 481 kts | 288° |
| 2026-05-06 02:21 | 19.47266 | -101.03007 | 31817 ft | 480 kts | 288° |
| 2026-05-06 02:22 | 19.49546 | -101.09662 | 31825 ft | 480 kts | 288° |
| 2026-05-06 02:22 | 19.51808 | -101.16273 | 31480 ft | 480 kts | 288° |
| 2026-05-06 02:22 | 19.52948 | -101.19606 | 31103 ft | 481 kts | 288° |
| 2026-05-06 02:23 | 19.54091 | -101.22951 | 30742 ft | 482 kts | 288° |
| 2026-05-06 02:23 | 19.55231 | -101.26290 | 30373 ft | 480 kts | 288° |
| 2026-05-06 02:23 | 19.56362 | -101.29602 | 30025 ft | 477 kts | 287° |
| 2026-05-06 02:23 | 19.57486 | -101.32898 | 29603 ft | 474 kts | 287° |
| 2026-05-06 02:24 | 19.58606 | -101.36183 | 29180 ft | 472 kts | 287° |
| 2026-05-06 02:24 | 19.59718 | -101.39451 | 28775 ft | 471 kts | 287° |
| 2026-05-06 02:24 | 19.60828 | -101.42714 | 28368 ft | 469 kts | 287° |
| 2026-05-06 02:24 | 19.61933 | -101.45962 | 27975 ft | 467 kts | 287° |
| 2026-05-06 02:25 | 19.63037 | -101.49212 | 27580 ft | 466 kts | 287° |
| 2026-05-06 02:25 | 19.64132 | -101.52436 | 27184 ft | 464 kts | 287° |
| 2026-05-06 02:25 | 19.65224 | -101.55653 | 26800 ft | 462 kts | 287° |
| 2026-05-06 02:25 | 19.66313 | -101.58863 | 26419 ft | 460 kts | 287° |
| 2026-05-06 02:26 | 19.67373 | -101.61988 | 26047 ft | 452 kts | 287° |
| 2026-05-06 02:26 | 19.68430 | -101.65104 | 25677 ft | 444 kts | 287° |
| 2026-05-06 02:26 | 19.69466 | -101.68162 | 25309 ft | 438 kts | 287° |
| 2026-05-06 02:26 | 19.70496 | -101.71209 | 24948 ft | 440 kts | 287° |
| 2026-05-06 02:27 | 19.71530 | -101.74275 | 24596 ft | 441 kts | 287° |
| 2026-05-06 02:27 | 19.72564 | -101.77334 | 24227 ft | 439 kts | 287° |
| 2026-05-06 02:27 | 19.73592 | -101.80377 | 24000 ft | 436 kts | 287° |
| 2026-05-06 02:27 | 19.74614 | -101.83407 | 23923 ft | 437 kts | 287° |
| 2026-05-06 02:28 | 19.75639 | -101.86448 | 23909 ft | 438 kts | 287° |
| 2026-05-06 02:28 | 19.76664 | -101.89489 | 23908 ft | 437 kts | 287° |
| 2026-05-06 02:28 | 19.77686 | -101.92525 | 23911 ft | 438 kts | 287° |
| 2026-05-06 02:28 | 19.78711 | -101.95571 | 23913 ft | 438 kts | 287° |
| 2026-05-06 02:29 | 19.79737 | -101.98620 | 23908 ft | 437 kts | 287° |
| 2026-05-06 02:29 | 19.80761 | -102.01665 | 23907 ft | 438 kts | 287° |
| 2026-05-06 02:29 | 19.81784 | -102.04712 | 23910 ft | 438 kts | 287° |
| 2026-05-06 02:29 | 19.82807 | -102.07756 | 23906 ft | 437 kts | 287° |
| 2026-05-06 02:30 | 19.83829 | -102.10803 | 23903 ft | 437 kts | 287° |
| 2026-05-06 02:30 | 19.84850 | -102.13846 | 23901 ft | 438 kts | 286° |
| 2026-05-06 02:30 | 19.85866 | -102.16877 | 23901 ft | 428 kts | 286° |
| 2026-05-06 02:30 | 19.86845 | -102.19789 | 23896 ft | 410 kts | 286° |
| 2026-05-06 02:31 | 19.87792 | -102.22609 | 23896 ft | 404 kts | 286° |
| 2026-05-06 02:31 | 19.88739 | -102.25450 | 23891 ft | 411 kts | 286° |
| 2026-05-06 02:31 | 19.89695 | -102.28318 | 23889 ft | 411 kts | 286° |
| 2026-05-06 02:31 | 19.90638 | -102.31140 | 23807 ft | 409 kts | 286° |
| 2026-05-06 02:32 | 19.91596 | -102.34008 | 23390 ft | 422 kts | 286° |
| 2026-05-06 02:32 | 19.92598 | -102.37025 | 22682 ft | 439 kts | 286° |
| 2026-05-06 02:32 | 19.93620 | -102.40089 | 21927 ft | 440 kts | 287° |
| 2026-05-06 02:32 | 19.94645 | -102.43156 | 21188 ft | 440 kts | 287° |
| 2026-05-06 02:33 | 19.95668 | -102.46218 | 20467 ft | 439 kts | 287° |
| 2026-05-06 02:33 | 19.96355 | -102.48282 | 19983 ft | 437 kts | 287° |
| 2026-05-06 02:33 | 19.98664 | -102.55222 | 18400 ft | 418 kts | 287° |
| 2026-05-06 02:34 | 19.99645 | -102.58093 | 17668 ft | 410 kts | 292° |
| 2026-05-06 02:34 | 20.01097 | -102.60657 | 16925 ft | 403 kts | 308° |
| 2026-05-06 02:34 | 20.03142 | -102.62660 | 16189 ft | 397 kts | 326° |
| 2026-05-06 02:34 | 20.05539 | -102.64059 | 15475 ft | 391 kts | 333° |
| 2026-05-06 02:35 | 20.07960 | -102.65324 | 14768 ft | 385 kts | 333° |
| 2026-05-06 02:35 | 20.10349 | -102.66565 | 14136 ft | 378 kts | 333° |
| 2026-05-06 02:35 | 20.12668 | -102.67787 | 13864 ft | 367 kts | 333° |
| 2026-05-06 02:35 | 20.15052 | -102.68709 | 13755 ft | 367 kts | 349° |
| 2026-05-06 02:36 | 20.17613 | -102.68745 | 13723 ft | 371 kts | 9° |
| 2026-05-06 02:36 | 20.20075 | -102.67934 | 13716 ft | 371 kts | 22° |
| 2026-05-06 02:36 | 20.22450 | -102.66857 | 13711 ft | 372 kts | 24° |
| 2026-05-06 02:36 | 20.24829 | -102.65782 | 13707 ft | 371 kts | 17° |
| 2026-05-06 02:37 | 20.27365 | -102.65360 | 13605 ft | 368 kts | 358° |
| 2026-05-06 02:37 | 20.29818 | -102.65854 | 13461 ft | 352 kts | 337° |
| 2026-05-06 02:37 | 20.31836 | -102.67163 | 13211 ft | 333 kts | 315° |
| 2026-05-06 02:37 | 20.33207 | -102.69080 | 12710 ft | 322 kts | 294° |
| 2026-05-06 02:38 | 20.33925 | -102.71305 | 12178 ft | 315 kts | 279° |
| 2026-05-06 02:38 | 20.34252 | -102.73590 | 11667 ft | 309 kts | 278° |
| 2026-05-06 02:38 | 20.34624 | -102.75812 | 11276 ft | 300 kts | 280° |
| 2026-05-06 02:38 | 20.35026 | -102.77929 | 10910 ft | 291 kts | 281° |
| 2026-05-06 02:39 | 20.35443 | -102.80015 | 10518 ft | 283 kts | 281° |
| 2026-05-06 02:39 | 20.35855 | -102.82040 | 10185 ft | 278 kts | 282° |
| 2026-05-06 02:39 | 20.36262 | -102.84050 | 9854 ft | 277 kts | 282° |
| 2026-05-06 02:39 | 20.36668 | -102.86058 | 9484 ft | 276 kts | 282° |
| 2026-05-06 02:40 | 20.37067 | -102.88040 | 9202 ft | 271 kts | 282° |
| 2026-05-06 02:40 | 20.37458 | -102.89983 | 8953 ft | 265 kts | 282° |
| 2026-05-06 02:40 | 20.37839 | -102.91880 | 8765 ft | 255 kts | 282° |
| 2026-05-06 02:40 | 20.38196 | -102.93656 | 8723 ft | 234 kts | 282° |
| 2026-05-06 02:41 | 20.38533 | -102.95333 | 8730 ft | 238 kts | 282° |
| 2026-05-06 02:41 | 20.38883 | -102.97076 | 8740 ft | 241 kts | 281° |
| 2026-05-06 02:41 | 20.39230 | -102.98807 | 8768 ft | 237 kts | 282° |
| 2026-05-06 02:41 | 20.39588 | -103.00461 | 8774 ft | 228 kts | 285° |
| 2026-05-06 02:42 | 20.40080 | -103.02042 | 8794 ft | 224 kts | 290° |
| 2026-05-06 02:42 | 20.40683 | -103.03591 | 8808 ft | 229 kts | 293° |
| 2026-05-06 02:42 | 20.41332 | -103.05143 | 8789 ft | 227 kts | 292° |
| 2026-05-06 02:42 | 20.41971 | -103.06673 | 8611 ft | 226 kts | 293° |
| 2026-05-06 02:43 | 20.42617 | -103.08210 | 8516 ft | 228 kts | 292° |
| 2026-05-06 02:43 | 20.43256 | -103.09743 | 8303 ft | 222 kts | 292° |
| 2026-05-06 02:43 | 20.43879 | -103.11234 | 8106 ft | 219 kts | 292° |
| 2026-05-06 02:43 | 20.44508 | -103.12740 | 7889 ft | 229 kts | 293° |
| 2026-05-06 02:44 | 20.45176 | -103.14336 | 7643 ft | 238 kts | 293° |
| 2026-05-06 02:44 | 20.45843 | -103.15931 | 7382 ft | 234 kts | 293° |
| 2026-05-06 02:44 | 20.46504 | -103.17514 | 7143 ft | 236 kts | 294° |
| 2026-05-06 02:44 | 20.47173 | -103.19110 | 6892 ft | 233 kts | 293° |
| 2026-05-06 02:45 | 20.47803 | -103.20618 | 6641 ft | 212 kts | 293° |
| 2026-05-06 02:45 | 20.48377 | -103.21960 | 6473 ft | 184 kts | 296° |
| 2026-05-06 02:45 | 20.48946 | -103.23071 | 6327 ft | 161 kts | 297° |
| 2026-05-06 02:45 | 20.49449 | -103.24055 | 6192 ft | 143 kts | 296° |
| 2026-05-06 02:46 | 20.49876 | -103.24962 | 6019 ft | 132 kts | 295° |
| 2026-05-06 02:46 | 20.50251 | -103.25807 | 5833 ft | 123 kts | 291° |
| 2026-05-06 02:46 | 20.50597 | -103.26676 | 5625 ft | 132 kts | 291° |
| 2026-05-06 02:46 | 20.50965 | -103.27610 | 5442 ft | 137 kts | 295° |
| 2026-05-06 02:47 | 20.51382 | -103.28533 | 5314 ft | 140 kts | 295° |
| 2026-05-06 02:47 | 20.51780 | -103.29512 | 5092 ft | 144 kts | 292° |
| 2026-05-06 02:47 | 20.52145 | -103.30387 | 5024 ft | 90 kts | 294° |
| 2026-05-06 02:47 | 20.52272 | -103.30690 | 5029 ft | 28 kts | 294° |
| 2026-05-06 02:48 | 20.52346 | -103.30865 | 5030 ft | 25 kts | 294° |
| 2026-05-06 02:48 | 20.52436 | -103.30952 | 5030 ft | 13 kts | 28° |
| 2026-05-06 02:48 | 20.52473 | -103.30932 | 5029 ft | 0 kts | 27° |
| 2026-05-06 02:48 | 20.52474 | -103.30931 | 5029 ft | 1 kts | 27° |
| 2026-05-06 02:49 | 20.52488 | -103.30924 | 5029 ft | 0 kts | 27° |
| 2026-05-06 02:51 | 20.52493 | -103.30921 | 5029 ft | 4 kts | 27° |
| 2026-05-06 02:52 | 20.52516 | -103.30862 | 5029 ft | 14 kts | 106° |
| 2026-05-06 02:52 | 20.52467 | -103.30742 | 5026 ft | 21 kts | 114° |
| 2026-05-06 02:52 | 20.52403 | -103.30589 | 5029 ft | 23 kts | 114° |
| 2026-05-06 02:52 | 20.52345 | -103.30451 | 5029 ft | 21 kts | 114° |
| 2026-05-06 02:53 | 20.52284 | -103.30307 | 5027 ft | 19 kts | 115° |
| 2026-05-06 02:53 | 20.52327 | -103.30235 | 5028 ft | 12 kts | 20° |
| 2026-05-06 02:53 | 20.52396 | -103.30185 | 5029 ft | 8 kts | 94° |
| 2026-05-06 02:53 | 20.52378 | -103.30111 | 5027 ft | 12 kts | 109° |
| 2026-05-06 02:54 | 20.52349 | -103.30021 | 5026 ft | 10 kts | 100° |
| 2026-05-06 02:54 | 20.52378 | -103.29995 | 5029 ft | 6 kts | 22° |
| 2026-05-06 02:54 | 20.52406 | -103.29984 | 5029 ft | 0 kts | 19° |